Elli — V7AW4 — position and weather

sailwx.info

Track history (hours):
 
Tides and Currents Weather Stations Pressure Air Temp Water Temp Dewpoint Dewpoint Depression Visibility Wind Speed Wind Dir Waves Ship Positions

Elli

Last reported at 2018-Apr-19 00:01 UTC. Time now 2018-Apr-26 23:04 UTC.
Position S 33°06' E 032°18'.

Length 105 m; draft 6.3 m.

Type: Ship (hazmat cat D). MMSI: 538005924.

Date/timePositionNaut miles runAvg speedWind from/ knotsBaromVisibWave heightAir tempDewpointWater temp
2018-Apr-19 00:01S 33°06' E 032°18'112.5
2018-Apr-18 23:56S 33°06' E 032°17'812.4
2018-Apr-18 23:19S 33°08' E 032°08'412.4
2018-Apr-18 22:59S 33°09' E 032°04'1612.5
2018-Apr-18 21:41S 33°14' E 031°45'1212.4
2018-Apr-18 20:43S 33°17' E 031°31'312.3
2018-Apr-18 20:30S 33°18' E 031°28'612.2
2018-Apr-18 20:00S 33°20' E 031°21'612.2
2018-Apr-18 19:30S 33°22' E 031°15'612.0
2018-Apr-18 19:00S 33°24' E 031°08'612.0
2018-Apr-18 18:30S 33°25' E 031°01'612.1
2018-Apr-18 18:00S 33°27' E 030°54'612.4
2018-Apr-18 17:30S 33°29' E 030°47'612.5
2018-Apr-18 17:00S 33°30' E 030°39'612.4
2018-Apr-18 16:30S 33°32' E 030°32'612.1
2018-Apr-18 16:00S 33°34' E 030°25'611.9
2018-Apr-18 15:30S 33°36' E 030°19'612.0
2018-Apr-18 15:00S 33°37' E 030°12'612.2
2018-Apr-18 14:30S 33°39' E 030°05'612.2
2018-Apr-18 14:00S 33°41' E 029°57'612.1
2018-Apr-18 13:30S 33°42' E 029°51'612.0
2018-Apr-18 12:59S 33°44' E 029°43'  
Track history (hours):
 
Tides and Currents Weather Stations Pressure Air Temp Water Temp Dewpoint Dewpoint Depression Visibility Wind Speed Wind Dir Waves Ship Positions

Elli

Last reported at 2018-Apr-19 00:01 UTC. Time now 2018-Apr-26 23:04 UTC.
Position S 33°06' E 032°18'.

Length 105 m; draft 6.3 m.

Type: Ship (hazmat cat D). MMSI: 538005924.

Date/timePositionNaut miles runAvg speedWind from/ knotsBaromVisibWave heightAir tempDewpointWater temp
2018-Apr-19 00:01S 33°06' E 032°18'112.5
2018-Apr-18 23:56S 33°06' E 032°17'812.4
2018-Apr-18 23:19S 33°08' E 032°08'412.4
2018-Apr-18 22:59S 33°09' E 032°04'1612.5
2018-Apr-18 21:41S 33°14' E 031°45'1212.4
2018-Apr-18 20:43S 33°17' E 031°31'312.3
2018-Apr-18 20:30S 33°18' E 031°28'612.2
2018-Apr-18 20:00S 33°20' E 031°21'612.2
2018-Apr-18 19:30S 33°22' E 031°15'612.0
2018-Apr-18 19:00S 33°24' E 031°08'612.0
2018-Apr-18 18:30S 33°25' E 031°01'612.1
2018-Apr-18 18:00S 33°27' E 030°54'612.4
2018-Apr-18 17:30S 33°29' E 030°47'612.5
2018-Apr-18 17:00S 33°30' E 030°39'612.4
2018-Apr-18 16:30S 33°32' E 030°32'612.1
2018-Apr-18 16:00S 33°34' E 030°25'611.9
2018-Apr-18 15:30S 33°36' E 030°19'612.0
2018-Apr-18 15:00S 33°37' E 030°12'612.2
2018-Apr-18 14:30S 33°39' E 030°05'612.2
2018-Apr-18 14:00S 33°41' E 029°57'612.1
2018-Apr-18 13:30S 33°42' E 029°51'612.0
2018-Apr-18 12:59S 33°44' E 029°43'  

Dump ship's entire track history